Durango International Airport
MMDO : now visible

Airfield :











YOU CAN JOIN US ON...

 
LOGIN :

Register | Disclaimer

   EN    FR    IT 

 









Legend :    VFR   Marginal VFR   IFR   Intensive IFR   Very Intensive IFR
Visi :
Ceiling :
>= 8 km
>= 3000ft
5 to 8 km
1000 to 3000 ft
1500m to 5 km
500 to 1000 ft
800 to 1500m
200 to 500 ft
< 800m
< 200 ft
Symbols :   Thunderstorms  Fog  Heavy snow  Heavy precipitations  Wind > 20 kt






- Airport Elevation : 6104 ft
- IATA code : DGO


MMDO - Durango International

CURRENT METAR :
  • 230140Z 03005KT 8SM SCT040CB BKN090 22/13 A3015 RMK 8/360 DSNT PCPN 1ST QUAD ISOL CI

EXPIRED METARs :
  • 230040Z 03007KT 10SM SCT040 SCT090 24/12 A3013 RMK 8/460 ISOL CI
  • 222340Z 36008KT 10SM SCT040 SCT080 25/11 A3013 RMK SLP066 57018 962 8/460 ISOL CI
  • 222241Z 36007KT 10SM SCT040 BKN090 25/12 A3015 RMK 8/460 DSNT CB 2ND QUAD
  • 222140Z 04004KT 10SM SCT040 BKN090 24/12 A3017 RMK 8/460 LWR SC ALRDD

TAF TAF MMDO
Valid from the 22 at 18:00 until the 23 at 18:00 UTC


221743Z 2218/2318 06010KT P6SM SCT020 SCT080
TEMPO 2301/2305 6SM -TSRA SCT020CB
FM230600 19005KT 6SM HZ SCT020 SCT080
FM231200 00000KT P6SM SCT040 SCT080
FM231500 05005KT P6SM SKC
MMFR FIR / North America



MET'MAP, your aeronautical weather chart ! - Copyright ORBIFLY December 2007 - Disclaimer

ORBIFLY MET'MAP TEAM :

Programming & Development : Alexandra Zaïnal
Original concept : Baudouin d'Aumeries
Technical & hardware support : Manuel Goepfert
Assistance : Marc-Olivier Méhu




SOURCES & CREDITS :

   NOAA       Earth
Advisory